Aviation Digital Data Service (ADDS)

Output produced by METARs form (1508 UTC 19 April 2019)
found at http://www.aviationweather.gov/metar/data/
 
METAR text: KOMA 191452Z 36007KT 10SM CLR 10/03 A3011 RMK AO2 SLP198 T01000033 50012
Conditions at: KOMA (OMAHA/EPPLEY , NE, US) observed 1452 UTC 19 April 2019
Temperature: 10.0°C (50°F)
Dewpoint: 3.3°C (38°F) [RH = 63%]
Pressure (altimeter): 30.11 inches Hg (1019.7 mb)
[Sea-level pressure: 1019.8 mb]
Winds: from the N (360 degrees) at 8 MPH (7 knots; 3.6 m/s)
Visibility: 10 or more miles (16+ km)
Ceiling: at least 12,000 feet AGL
Clouds: sky clear below 12,000 feet AGL
Weather: no significant weather observed at this time

METAR text: KOMA 191352Z 36008KT 10SM CLR 08/03 A3012 RMK AO2 SLP201 T00830028
Conditions at: KOMA (OMAHA/EPPLEY , NE, US) observed 1352 UTC 19 April 2019
Temperature: 8.3°C (47°F)
Dewpoint: 2.8°C (37°F) [RH = 68%]
Pressure (altimeter): 30.12 inches Hg (1020.1 mb)
[Sea-level pressure: 1020.1 mb]
Winds: from the N (360 degrees) at 9 MPH (8 knots; 4.1 m/s)
Visibility: 10 or more miles (16+ km)
Ceiling: at least 12,000 feet AGL
Clouds: sky clear below 12,000 feet AGL
Weather: no significant weather observed at this time

METAR text: KOMA 191252Z 34008KT 10SM CLR 07/02 A3010 RMK AO2 SLP196 T00670022
Conditions at: KOMA (OMAHA/EPPLEY , NE, US) observed 1252 UTC 19 April 2019
Temperature: 6.7°C (44°F)
Dewpoint: 2.2°C (36°F) [RH = 73%]
Pressure (altimeter): 30.10 inches Hg (1019.4 mb)
[Sea-level pressure: 1019.6 mb]
Winds: from the NNW (340 degrees) at 9 MPH (8 knots; 4.1 m/s)
Visibility: 10 or more miles (16+ km)
Ceiling: at least 12,000 feet AGL
Clouds: sky clear below 12,000 feet AGL
Weather: no significant weather observed at this time

METAR text: KOMA 191152Z 35007KT 10SM CLR 04/02 A3007 RMK AO2 SLP187 T00440017 10078 20044 51014
Conditions at: KOMA (OMAHA/EPPLEY , NE, US) observed 1152 UTC 19 April 2019
Temperature: 4.4°C (40°F)
Dewpoint: 1.7°C (35°F) [RH = 83%]
Pressure (altimeter): 30.07 inches Hg (1018.4 mb)
[Sea-level pressure: 1018.7 mb]
Winds: from the N (350 degrees) at 8 MPH (7 knots; 3.6 m/s)
Visibility: 10 or more miles (16+ km)
Ceiling: at least 12,000 feet AGL
Clouds: sky clear below 12,000 feet AGL
Weather: no significant weather observed at this time

METAR text: KOMA 191052Z 35010KT 10SM CLR 06/02 A3007 RMK AO2 SLP185 T00610022
Conditions at: KOMA (OMAHA/EPPLEY , NE, US) observed 1052 UTC 19 April 2019
Temperature: 6.1°C (43°F)
Dewpoint: 2.2°C (36°F) [RH = 76%]
Pressure (altimeter): 30.07 inches Hg (1018.4 mb)
[Sea-level pressure: 1018.5 mb]
Winds: from the N (350 degrees) at 12 MPH (10 knots; 5.1 m/s)
Visibility: 10 or more miles (16+ km)
Ceiling: at least 12,000 feet AGL
Clouds: sky clear below 12,000 feet AGL
Weather: no significant weather observed at this time

METAR text: KOMA 190952Z 35011KT 10SM CLR 06/03 A3005 RMK AO2 SLP176 T00610028
Conditions at: KOMA (OMAHA/EPPLEY , NE, US) observed 0952 UTC 19 April 2019
Temperature: 6.1°C (43°F)
Dewpoint: 2.8°C (37°F) [RH = 79%]
Pressure (altimeter): 30.05 inches Hg (1017.7 mb)
[Sea-level pressure: 1017.6 mb]
Winds: from the N (350 degrees) at 13 MPH (11 knots; 5.7 m/s)
Visibility: 10 or more miles (16+ km)
Ceiling: at least 12,000 feet AGL
Clouds: sky clear below 12,000 feet AGL
Weather: no significant weather observed at this time

METAR text: KOMA 190852Z 35010KT 10SM CLR 07/03 A3003 RMK AO2 SLP170 T00670028 50002
Conditions at: KOMA (OMAHA/EPPLEY , NE, US) observed 0852 UTC 19 April 2019
Temperature: 6.7°C (44°F)
Dewpoint: 2.8°C (37°F) [RH = 76%]
Pressure (altimeter): 30.03 inches Hg (1017.0 mb)
[Sea-level pressure: 1017.0 mb]
Winds: from the N (350 degrees) at 12 MPH (10 knots; 5.1 m/s)
Visibility: 10 or more miles (16+ km)
Ceiling: at least 12,000 feet AGL
Clouds: sky clear below 12,000 feet AGL
Weather: no significant weather observed at this time

METAR text: KOMA 190752Z 34008KT 10SM CLR 07/03 A3003 RMK AO2 SLP172 T00670028
Conditions at: KOMA (OMAHA/EPPLEY , NE, US) observed 0752 UTC 19 April 2019
Temperature: 6.7°C (44°F)
Dewpoint: 2.8°C (37°F) [RH = 76%]
Pressure (altimeter): 30.03 inches Hg (1017.0 mb)
[Sea-level pressure: 1017.2 mb]
Winds: from the NNW (340 degrees) at 9 MPH (8 knots; 4.1 m/s)
Visibility: 10 or more miles (16+ km)
Ceiling: at least 12,000 feet AGL
Clouds: sky clear below 12,000 feet AGL
Weather: no significant weather observed at this time

METAR text: KOMA 190652Z 00000KT 10SM FEW055 07/03 A3004 RMK AO2 SLP172 T00720033
Conditions at: KOMA (OMAHA/EPPLEY , NE, US) observed 0652 UTC 19 April 2019
Temperature: 7.2°C (45°F)
Dewpoint: 3.3°C (38°F) [RH = 76%]
Pressure (altimeter): 30.04 inches Hg (1017.4 mb)
[Sea-level pressure: 1017.2 mb]
Winds: calm
Visibility: 10 or more miles (16+ km)
Ceiling: at least 12,000 feet AGL
Clouds: few clouds at 5500 feet AGL
Weather: no significant weather observed at this time

METAR text: KOMA 190552Z 33005KT 10SM SCT045 SCT055 07/04 A3003 RMK AO2 SLP169 T00720039 10122 20072 401670072 53007
Conditions at: KOMA (OMAHA/EPPLEY , NE, US) observed 0552 UTC 19 April 2019
Temperature: 7.2°C (45°F)
Dewpoint: 3.9°C (39°F) [RH = 80%]
Pressure (altimeter): 30.03 inches Hg (1017.0 mb)
[Sea-level pressure: 1016.9 mb]
Winds: from the NNW (330 degrees) at 6 MPH (5 knots; 2.6 m/s)
Visibility: 10 or more miles (16+ km)
Ceiling: at least 12,000 feet AGL
Clouds: scattered clouds at 4500 feet AGL
scattered clouds at 5500 feet AGL
Weather: no significant weather observed at this time

METAR text: KOMA 190452Z 35005KT 10SM SCT065 08/03 A3001 RMK AO2 SLP162 T00780028
Conditions at: KOMA (OMAHA/EPPLEY , NE, US) observed 0452 UTC 19 April 2019
Temperature: 7.8°C (46°F)
Dewpoint: 2.8°C (37°F) [RH = 71%]
Pressure (altimeter): 30.01 inches Hg (1016.3 mb)
[Sea-level pressure: 1016.2 mb]
Winds: from the N (350 degrees) at 6 MPH (5 knots; 2.6 m/s)
Visibility: 10 or more miles (16+ km)
Ceiling: at least 12,000 feet AGL
Clouds: scattered clouds at 6500 feet AGL
Weather: no significant weather observed at this time

METAR text: KOMA 190352Z 34010KT 10SM CLR 09/03 A3000 RMK AO2 SLP160 T00940033
Conditions at: KOMA (OMAHA/EPPLEY , NE, US) observed 0352 UTC 19 April 2019
Temperature: 9.4°C (49°F)
Dewpoint: 3.3°C (38°F) [RH = 66%]
Pressure (altimeter): 30.00 inches Hg (1016.0 mb)
[Sea-level pressure: 1016.0 mb]
Winds: from the NNW (340 degrees) at 12 MPH (10 knots; 5.1 m/s)
Visibility: 10 or more miles (16+ km)
Ceiling: at least 12,000 feet AGL
Clouds: sky clear below 12,000 feet AGL
Weather: no significant weather observed at this time

METAR text: KOMA 190252Z 35012KT 10SM FEW060 SCT075 11/04 A3000 RMK AO2 SLP162 T01060039 51025
Conditions at: KOMA (OMAHA/EPPLEY , NE, US) observed 0252 UTC 19 April 2019
Temperature: 10.6°C (51°F)
Dewpoint: 3.9°C (39°F) [RH = 63%]
Pressure (altimeter): 30.00 inches Hg (1016.0 mb)
[Sea-level pressure: 1016.2 mb]
Winds: from the N (350 degrees) at 14 MPH (12 knots; 6.2 m/s)
Visibility: 10 or more miles (16+ km)
Ceiling: at least 12,000 feet AGL
Clouds: few clouds at 6000 feet AGL
scattered clouds at 7500 feet AGL
Weather: no significant weather observed at this time

METAR text: KOMA 190152Z 36011KT 10SM FEW032 SCT060 11/03 A2999 RMK AO2 SLP156 T01060033
Conditions at: KOMA (OMAHA/EPPLEY , NE, US) observed 0152 UTC 19 April 2019
Temperature: 10.6°C (51°F)
Dewpoint: 3.3°C (38°F) [RH = 61%]
Pressure (altimeter): 29.99 inches Hg (1015.7 mb)
[Sea-level pressure: 1015.6 mb]
Winds: from the N (360 degrees) at 13 MPH (11 knots; 5.7 m/s)
Visibility: 10 or more miles (16+ km)
Ceiling: at least 12,000 feet AGL
Clouds: few clouds at 3200 feet AGL
scattered clouds at 6000 feet AGL
Weather: no significant weather observed at this time

METAR text: KOMA 190052Z 01017KT 10SM SCT035 BKN060 BKN080 12/03 A2995 RMK AO2 PK WND 34028/2354 SLP145 T01170033
Conditions at: KOMA (OMAHA/EPPLEY , NE, US) observed 0052 UTC 19 April 2019
Temperature: 11.7°C (53°F)
Dewpoint: 3.3°C (38°F) [RH = 56%]
Pressure (altimeter): 29.95 inches Hg (1014.3 mb)
[Sea-level pressure: 1014.5 mb]
Winds: from the N (10 degrees) at 20 MPH (17 knots; 8.7 m/s)
Visibility: 10 or more miles (16+ km)
Ceiling: 6000 feet AGL
Clouds: scattered clouds at 3500 feet AGL
broken clouds at 6000 feet AGL
broken clouds at 8000 feet AGL
Weather: no significant weather observed at this time

METAR text: KOMA 182352Z 34018G26KT 10SM SCT032 BKN063 BKN080 12/05 A2993 RMK AO2 PK WND 35028/2256 SLP136 T01220050 10167 20122 53025
Conditions at: KOMA (OMAHA/EPPLEY , NE, US) observed 2352 UTC 18 April 2019
Temperature: 12.2°C (54°F)
Dewpoint: 5.0°C (41°F) [RH = 61%]
Pressure (altimeter): 29.93 inches Hg (1013.6 mb)
[Sea-level pressure: 1013.6 mb]
Winds: from the NNW (340 degrees) at 21 MPH (18 knots; 9.3 m/s)
gusting to 30 MPH (26 knots; 13.4 m/s)
Visibility: 10 or more miles (16+ km)
Ceiling: 6300 feet AGL
Clouds: scattered clouds at 3200 feet AGL
broken clouds at 6300 feet AGL
broken clouds at 8000 feet AGL
Weather: no significant weather observed at this time

METAR text: KOMA 182252Z 35020G29KT 10SM SCT035 BKN065 14/04 A2989 RMK AO2 PK WND 36030/2234 SLP122 T01390039
Conditions at: KOMA (OMAHA/EPPLEY , NE, US) observed 2252 UTC 18 April 2019
Temperature: 13.9°C (57°F)
Dewpoint: 3.9°C (39°F) [RH = 51%]
Pressure (altimeter): 29.89 inches Hg (1012.3 mb)
[Sea-level pressure: 1012.2 mb]
Winds: from the N (350 degrees) at 23 MPH (20 knots; 10.3 m/s)
gusting to 33 MPH (29 knots; 14.9 m/s)
Visibility: 10 or more miles (16+ km)
Ceiling: 6500 feet AGL
Clouds: scattered clouds at 3500 feet AGL
broken clouds at 6500 feet AGL
Weather: no significant weather observed at this time

METAR text: KOMA 182152Z 35020G29KT 10SM FEW041 SCT045 SCT080 14/04 A2985 RMK AO2 PK WND 34030/2105 SLP109 T01440039
Conditions at: KOMA (OMAHA/EPPLEY , NE, US) observed 2152 UTC 18 April 2019
Temperature: 14.4°C (58°F)
Dewpoint: 3.9°C (39°F) [RH = 49%]
Pressure (altimeter): 29.85 inches Hg (1010.9 mb)
[Sea-level pressure: 1010.9 mb]
Winds: from the N (350 degrees) at 23 MPH (20 knots; 10.3 m/s)
gusting to 33 MPH (29 knots; 14.9 m/s)
Visibility: 10 or more miles (16+ km)
Ceiling: at least 12,000 feet AGL
Clouds: few clouds at 4100 feet AGL
scattered clouds at 4500 feet AGL
scattered clouds at 8000 feet AGL
Weather: no significant weather observed at this time

METAR text: KOMA 182052Z 35017KT 10SM SCT050 SCT080 16/04 A2985 RMK AO2 SLP108 TCU DSNT NW T01610039 58017
Conditions at: KOMA (OMAHA/EPPLEY , NE, US) observed 2052 UTC 18 April 2019
Temperature: 16.1°C (61°F)
Dewpoint: 3.9°C (39°F) [RH = 44%]
Pressure (altimeter): 29.85 inches Hg (1010.9 mb)
[Sea-level pressure: 1010.8 mb]
Winds: from the N (350 degrees) at 20 MPH (17 knots; 8.7 m/s)
Visibility: 10 or more miles (16+ km)
Ceiling: at least 12,000 feet AGL
Clouds: scattered clouds at 5000 feet AGL
scattered clouds at 8000 feet AGL
Weather: no significant weather observed at this time

METAR text: KOMA 181952Z 35019G25KT 10SM SCT049 SCT060 15/04 A2987 RMK AO2 SLP113 T01500039
Conditions at: KOMA (OMAHA/EPPLEY , NE, US) observed 1952 UTC 18 April 2019
Temperature: 15.0°C (59°F)
Dewpoint: 3.9°C (39°F) [RH = 47%]
Pressure (altimeter): 29.87 inches Hg (1011.6 mb)
[Sea-level pressure: 1011.3 mb]
Winds: from the N (350 degrees) at 22 MPH (19 knots; 9.8 m/s)
gusting to 29 MPH (25 knots; 12.9 m/s)
Visibility: 10 or more miles (16+ km)
Ceiling: at least 12,000 feet AGL
Clouds: scattered clouds at 4900 feet AGL
scattered clouds at 6000 feet AGL
Weather: no significant weather observed at this time

METAR text: KOMA 181852Z 36014KT 10SM SCT043 SCT060 16/04 A2989 RMK AO2 SLP121 T01560044
Conditions at: KOMA (OMAHA/EPPLEY , NE, US) observed 1852 UTC 18 April 2019
Temperature: 15.6°C (60°F)
Dewpoint: 4.4°C (40°F) [RH = 47%]
Pressure (altimeter): 29.89 inches Hg (1012.3 mb)
[Sea-level pressure: 1012.1 mb]
Winds: from the N (360 degrees) at 16 MPH (14 knots; 7.2 m/s)
Visibility: 10 or more miles (16+ km)
Ceiling: at least 12,000 feet AGL
Clouds: scattered clouds at 4300 feet AGL
scattered clouds at 6000 feet AGL
Weather: no significant weather observed at this time

METAR text: KOMA 181752Z 33012KT 10SM SCT032 BKN046 14/05 A2990 RMK AO2 SLP126 T01390050 10144 20083 56002
Conditions at: KOMA (OMAHA/EPPLEY , NE, US) observed 1752 UTC 18 April 2019
Temperature: 13.9°C (57°F)
Dewpoint: 5.0°C (41°F) [RH = 55%]
Pressure (altimeter): 29.90 inches Hg (1012.6 mb)
[Sea-level pressure: 1012.6 mb]
Winds: from the NNW (330 degrees) at 14 MPH (12 knots; 6.2 m/s)
Visibility: 10 or more miles (16+ km)
Ceiling: 4600 feet AGL
Clouds: scattered clouds at 3200 feet AGL
broken clouds at 4600 feet AGL
Weather: no significant weather observed at this time

METAR text: KOMA 181652Z 35012KT 10SM SCT020 BKN038 13/05 A2990 RMK AO2 SLP126 T01280050
Conditions at: KOMA (OMAHA/EPPLEY , NE, US) observed 1652 UTC 18 April 2019
Temperature: 12.8°C (55°F)
Dewpoint: 5.0°C (41°F) [RH = 59%]
Pressure (altimeter): 29.90 inches Hg (1012.6 mb)
[Sea-level pressure: 1012.6 mb]
Winds: from the N (350 degrees) at 14 MPH (12 knots; 6.2 m/s)
Visibility: 10 or more miles (16+ km)
Ceiling: 3800 feet AGL
Clouds: scattered clouds at 2000 feet AGL
broken clouds at 3800 feet AGL
Weather: no significant weather observed at this time

METAR text: KOMA 181649Z 35011KT 10SM SCT020 BKN038 13/05 A2991 RMK AO2
Conditions at: KOMA (OMAHA/EPPLEY , NE, US) observed 1649 UTC 18 April 2019
Temperature: 13.0°C (55°F)
Dewpoint: 5.0°C (41°F) [RH = 58%]
Pressure (altimeter): 29.91 inches Hg (1013.0 mb)
Winds: from the N (350 degrees) at 13 MPH (11 knots; 5.7 m/s)
Visibility: 10 or more miles (16+ km)
Ceiling: 3800 feet AGL
Clouds: scattered clouds at 2000 feet AGL
broken clouds at 3800 feet AGL
Weather: no significant weather observed at this time

METAR text: KOMA 181552Z 32015KT 10SM BKN018 BKN031 11/04 A2991 RMK AO2 SLP129 T01110044
Conditions at: KOMA (OMAHA/EPPLEY , NE, US) observed 1552 UTC 18 April 2019
Temperature: 11.1°C (52°F)
Dewpoint: 4.4°C (40°F) [RH = 63%]
Pressure (altimeter): 29.91 inches Hg (1013.0 mb)
[Sea-level pressure: 1012.9 mb]
Winds: from the NW (320 degrees) at 17 MPH (15 knots; 7.7 m/s)
Visibility: 10 or more miles (16+ km)
Ceiling: 1800 feet AGL
Clouds: broken clouds at 1800 feet AGL
broken clouds at 3100 feet AGL
Weather: no significant weather observed at this time

METAR text: KOMA 181452Z 31009KT 10SM BKN015 OVC047 10/05 A2990 RMK AO2 SLP128 T01000050 51026
Conditions at: KOMA (OMAHA/EPPLEY , NE, US) observed 1452 UTC 18 April 2019
Temperature: 10.0°C (50°F)
Dewpoint: 5.0°C (41°F) [RH = 71%]
Pressure (altimeter): 29.90 inches Hg (1012.6 mb)
[Sea-level pressure: 1012.8 mb]
Winds: from the NW (310 degrees) at 10 MPH (9 knots; 4.6 m/s)
Visibility: 10 or more miles (16+ km)
Ceiling: 1500 feet AGL
Clouds: broken clouds at 1500 feet AGL
overcast cloud deck at 4700 feet AGL
Weather: no significant weather observed at this time

METAR text: KOMA 181352Z 32012KT 10SM BKN015 OVC047 09/05 A2989 RMK AO2 SLP122 T00890050
Conditions at: KOMA (OMAHA/EPPLEY , NE, US) observed 1352 UTC 18 April 2019
Temperature: 8.9°C (48°F)
Dewpoint: 5.0°C (41°F) [RH = 76%]
Pressure (altimeter): 29.89 inches Hg (1012.3 mb)
[Sea-level pressure: 1012.2 mb]
Winds: from the NW (320 degrees) at 14 MPH (12 knots; 6.2 m/s)
Visibility: 10 or more miles (16+ km)
Ceiling: 1500 feet AGL
Clouds: broken clouds at 1500 feet AGL
overcast cloud deck at 4700 feet AGL
Weather: no significant weather observed at this time

METAR text: KOMA 181252Z 32010KT 10SM BKN015 OVC044 08/05 A2985 RMK AO2 SLP110 T00830050
Conditions at: KOMA (OMAHA/EPPLEY , NE, US) observed 1252 UTC 18 April 2019
Temperature: 8.3°C (47°F)
Dewpoint: 5.0°C (41°F) [RH = 80%]
Pressure (altimeter): 29.85 inches Hg (1010.9 mb)
[Sea-level pressure: 1011.0 mb]
Winds: from the NW (320 degrees) at 12 MPH (10 knots; 5.1 m/s)
Visibility: 10 or more miles (16+ km)
Ceiling: 1500 feet AGL
Clouds: broken clouds at 1500 feet AGL
overcast cloud deck at 4400 feet AGL
Weather: no significant weather observed at this time

METAR text: KOMA 181241Z 33011KT 10SM BKN016 OVC044 08/05 A2984 RMK AO2 T00830050
Conditions at: KOMA (OMAHA/EPPLEY , NE, US) observed 1241 UTC 18 April 2019
Temperature: 8.3°C (47°F)
Dewpoint: 5.0°C (41°F) [RH = 80%]
Pressure (altimeter): 29.84 inches Hg (1010.6 mb)
Winds: from the NNW (330 degrees) at 13 MPH (11 knots; 5.7 m/s)
Visibility: 10 or more miles (16+ km)
Ceiling: 1600 feet AGL
Clouds: broken clouds at 1600 feet AGL
overcast cloud deck at 4400 feet AGL
Weather: no significant weather observed at this time

METAR text: KOMA 181152Z 33013KT 10SM FEW013 FEW020 OVC042 08/05 A2982 RMK AO2 SLP099 T00830050 10100 20083 51010
Conditions at: KOMA (OMAHA/EPPLEY , NE, US) observed 1152 UTC 18 April 2019
Temperature: 8.3°C (47°F)
Dewpoint: 5.0°C (41°F) [RH = 80%]
Pressure (altimeter): 29.82 inches Hg (1009.9 mb)
[Sea-level pressure: 1009.9 mb]
Winds: from the NNW (330 degrees) at 15 MPH (13 knots; 6.7 m/s)
Visibility: 10 or more miles (16+ km)
Ceiling: 4200 feet AGL
Clouds: few clouds at 1300 feet AGL
few clouds at 2000 feet AGL
overcast cloud deck at 4200 feet AGL
Weather: no significant weather observed at this time

METAR text: KOMA 181121Z 33016KT 10SM FEW014 SCT021 BKN042 OVC250 08/04 A2981 RMK AO2 T00830044
Conditions at: KOMA (OMAHA/EPPLEY , NE, US) observed 1121 UTC 18 April 2019
Temperature: 8.3°C (47°F)
Dewpoint: 4.4°C (40°F) [RH = 76%]
Pressure (altimeter): 29.81 inches Hg (1009.6 mb)
Winds: from the NNW (330 degrees) at 18 MPH (16 knots; 8.2 m/s)
Visibility: 10 or more miles (16+ km)
Ceiling: 4200 feet AGL
Clouds: few clouds at 1400 feet AGL
scattered clouds at 2100 feet AGL
broken clouds at 4200 feet AGL
overcast cloud deck at 25000 feet AGL
Weather: no significant weather observed at this time

METAR text: KOMA 181052Z 34010KT 10SM BKN021 08/04 A2982 RMK AO2 SLP098 T00830044
Conditions at: KOMA (OMAHA/EPPLEY , NE, US) observed 1052 UTC 18 April 2019
Temperature: 8.3°C (47°F)
Dewpoint: 4.4°C (40°F) [RH = 76%]
Pressure (altimeter): 29.82 inches Hg (1009.9 mb)
[Sea-level pressure: 1009.8 mb]
Winds: from the NNW (340 degrees) at 12 MPH (10 knots; 5.1 m/s)
Visibility: 10 or more miles (16+ km)
Ceiling: 2100 feet AGL
Clouds: broken clouds at 2100 feet AGL
Weather: no significant weather observed at this time

METAR text: KOMA 181041Z 34011KT 10SM BKN021 OVC250 08/04 A2982 RMK AO2 T00830044
Conditions at: KOMA (OMAHA/EPPLEY , NE, US) observed 1041 UTC 18 April 2019
Temperature: 8.3°C (47°F)
Dewpoint: 4.4°C (40°F) [RH = 76%]
Pressure (altimeter): 29.82 inches Hg (1009.9 mb)
Winds: from the NNW (340 degrees) at 13 MPH (11 knots; 5.7 m/s)
Visibility: 10 or more miles (16+ km)
Ceiling: 2100 feet AGL
Clouds: broken clouds at 2100 feet AGL
overcast cloud deck at 25000 feet AGL
Weather: no significant weather observed at this time

METAR text: KOMA 180952Z 35011KT 10SM FEW024 OVC250 08/04 A2982 RMK AO2 SLP095 T00830044
Conditions at: KOMA (OMAHA/EPPLEY , NE, US) observed 0952 UTC 18 April 2019
Temperature: 8.3°C (47°F)
Dewpoint: 4.4°C (40°F) [RH = 76%]
Pressure (altimeter): 29.82 inches Hg (1009.9 mb)
[Sea-level pressure: 1009.5 mb]
Winds: from the N (350 degrees) at 13 MPH (11 knots; 5.7 m/s)
Visibility: 10 or more miles (16+ km)
Ceiling: 25000 feet AGL
Clouds: few clouds at 2400 feet AGL
overcast cloud deck at 25000 feet AGL
Weather: no significant weather observed at this time

METAR text: KOMA 180852Z 32015KT 10SM SCT026 OVC250 09/04 A2979 RMK AO2 SLP087 T00940044 55006
Conditions at: KOMA (OMAHA/EPPLEY , NE, US) observed 0852 UTC 18 April 2019
Temperature: 9.4°C (49°F)
Dewpoint: 4.4°C (40°F) [RH = 71%]
Pressure (altimeter): 29.79 inches Hg (1008.9 mb)
[Sea-level pressure: 1008.7 mb]
Winds: from the NW (320 degrees) at 17 MPH (15 knots; 7.7 m/s)
Visibility: 10 or more miles (16+ km)
Ceiling: 25000 feet AGL
Clouds: scattered clouds at 2600 feet AGL
overcast cloud deck at 25000 feet AGL
Weather: no significant weather observed at this time

METAR text: KOMA 180840Z 33017KT 10SM SCT026 OVC250 09/04 A2979 RMK AO2 T00940039
Conditions at: KOMA (OMAHA/EPPLEY , NE, US) observed 0840 UTC 18 April 2019
Temperature: 9.4°C (49°F)
Dewpoint: 3.9°C (39°F) [RH = 68%]
Pressure (altimeter): 29.79 inches Hg (1008.9 mb)
Winds: from the NNW (330 degrees) at 20 MPH (17 knots; 8.7 m/s)
Visibility: 10 or more miles (16+ km)
Ceiling: 25000 feet AGL
Clouds: scattered clouds at 2600 feet AGL
overcast cloud deck at 25000 feet AGL
Weather: no significant weather observed at this time

METAR text: KOMA 180752Z 33015G24KT 10SM OVC024 10/04 A2978 RMK AO2 SLP081 T01000044
Conditions at: KOMA (OMAHA/EPPLEY , NE, US) observed 0752 UTC 18 April 2019
Temperature: 10.0°C (50°F)
Dewpoint: 4.4°C (40°F) [RH = 68%]
Pressure (altimeter): 29.78 inches Hg (1008.5 mb)
[Sea-level pressure: 1008.1 mb]
Winds: from the NNW (330 degrees) at 17 MPH (15 knots; 7.7 m/s)
gusting to 28 MPH (24 knots; 12.3 m/s)
Visibility: 10 or more miles (16+ km)
Ceiling: 2400 feet AGL
Clouds: overcast cloud deck at 2400 feet AGL
Weather: no significant weather observed at this time

METAR text: KOMA 180652Z 33012KT 10SM BKN024 OVC250 09/05 A2977 RMK AO2 SLP080 T00940050
Conditions at: KOMA (OMAHA/EPPLEY , NE, US) observed 0652 UTC 18 April 2019
Temperature: 9.4°C (49°F)
Dewpoint: 5.0°C (41°F) [RH = 74%]
Pressure (altimeter): 29.77 inches Hg (1008.2 mb)
[Sea-level pressure: 1008.0 mb]
Winds: from the NNW (330 degrees) at 14 MPH (12 knots; 6.2 m/s)
Visibility: 10 or more miles (16+ km)
Ceiling: 2400 feet AGL
Clouds: broken clouds at 2400 feet AGL
overcast cloud deck at 25000 feet AGL
Weather: no significant weather observed at this time

METAR text: KOMA 180602Z 33011KT 10SM BKN026 OVC250 09/05 A2981 RMK AO2 T00940050
Conditions at: KOMA (OMAHA/EPPLEY , NE, US) observed 0602 UTC 18 April 2019
Temperature: 9.4°C (49°F)
Dewpoint: 5.0°C (41°F) [RH = 74%]
Pressure (altimeter): 29.81 inches Hg (1009.6 mb)
Winds: from the NNW (330 degrees) at 13 MPH (11 knots; 5.7 m/s)
Visibility: 10 or more miles (16+ km)
Ceiling: 2600 feet AGL
Clouds: broken clouds at 2600 feet AGL
overcast cloud deck at 25000 feet AGL
Weather: no significant weather observed at this time

METAR text: KOMA 180552Z 33010KT 10SM FEW018 SCT026 OVC250 09/05 A2981 RMK AO2 SLP093 T00940050 10150 20094 402170094 53012
Conditions at: KOMA (OMAHA/EPPLEY , NE, US) observed 0552 UTC 18 April 2019
Temperature: 9.4°C (49°F)
Dewpoint: 5.0°C (41°F) [RH = 74%]
Pressure (altimeter): 29.81 inches Hg (1009.6 mb)
[Sea-level pressure: 1009.3 mb]
Winds: from the NNW (330 degrees) at 12 MPH (10 knots; 5.1 m/s)
Visibility: 10 or more miles (16+ km)
Ceiling: 25000 feet AGL
Clouds: few clouds at 1800 feet AGL
scattered clouds at 2600 feet AGL
overcast cloud deck at 25000 feet AGL
Weather: no significant weather observed at this time

METAR text: KOMA 180452Z 34012KT 10SM FEW021 OVC250 10/05 A2979 RMK AO2 PK WND 34031/0353 PRESRR SLP086 T01000050
Conditions at: KOMA (OMAHA/EPPLEY , NE, US) observed 0452 UTC 18 April 2019
Temperature: 10.0°C (50°F)
Dewpoint: 5.0°C (41°F) [RH = 71%]
Pressure (altimeter): 29.79 inches Hg (1008.9 mb)
[Sea-level pressure: 1008.6 mb]
Winds: from the NNW (340 degrees) at 14 MPH (12 knots; 6.2 m/s)
Visibility: 10 or more miles (16+ km)
Ceiling: 25000 feet AGL
Clouds: few clouds at 2100 feet AGL
overcast cloud deck at 25000 feet AGL
Weather: no significant weather observed at this time

METAR text: KOMA 180352Z 34022G30KT 10SM FEW030 OVC250 11/05 A2977 RMK AO2 PK WND 34035/0336 SLP078 T01060050
Conditions at: KOMA (OMAHA/EPPLEY , NE, US) observed 0352 UTC 18 April 2019
Temperature: 10.6°C (51°F)
Dewpoint: 5.0°C (41°F) [RH = 68%]
Pressure (altimeter): 29.77 inches Hg (1008.2 mb)
[Sea-level pressure: 1007.8 mb]
Winds: from the NNW (340 degrees) at 25 MPH (22 knots; 11.3 m/s)
gusting to 34 MPH (30 knots; 15.4 m/s)
Visibility: 10 or more miles (16+ km)
Ceiling: 25000 feet AGL
Clouds: few clouds at 3000 feet AGL
overcast cloud deck at 25000 feet AGL
Weather: no significant weather observed at this time

Forecast for: KOMA (OMAHA/EPPLEY , NE, US)
Text: KOMA 191130Z 1912/2012 34010KT P6SM SCT050
Forecast period: 1200 UTC 19 April 2019 to 0000 UTC 20 April 2019
Forecast type: FROM: standard forecast or significant change
Winds: from the NNW (340 degrees) at 12 MPH (10 knots; 5.1 m/s)
Visibility: 6 or more miles 10+ km)
Ceiling: at least 12,000 feet AGL
Clouds: scattered clouds at 5000 feet AGL
Weather: no significant weather forecast for this period
Text: FM200000 VRB04KT P6SM SKC
Forecast period: 0000 to 0400 UTC 20 April 2019
Forecast type: FROM: standard forecast or significant change
Winds: variable direction winds at 5 MPH (4 knots; 2.1 m/s)
Visibility: 6 or more miles 10+ km)
Clouds: clear skies
Weather: no significant weather forecast for this period
Text: FM200400 16002KT P6SM SKC
Forecast period: 0400 to 1200 UTC 20 April 2019
Forecast type: FROM: standard forecast or significant change
Winds: from the SSE (160 degrees) at 2 MPH (2 knots; 1.0 m/s)
Visibility: 6 or more miles 10+ km)
Clouds: clear skies
Weather: no significant weather forecast for this period